Latest Weather Observations for Gympie

IDQ60801

Issued at 10:32 am EST Saturday 28 February 2015 (issued every 30 minutes, with the page automatically refreshed every 10 minutes)

About weather observations | Map of weather stations | Latest weather observations for QLD | Other Formats
Station Details ID: 040093 Name: GYMPIE Lat: -26.18 Lon: 152.64 Height: 64.5 m
Data from the previous 72 hours. | See also: Recent months at Gympie
Date/Time
EST
Temp
°C
App
Temp
°C
Dew
Point
Rel
Hum
%
Delta-T
°C
Wind Press
QNH
hPa
Press
MSL
hPa
Rain
since 9 am
mm
Dir
 
Spd
km/h
Gust
km/h
Spd
kts
Gust
kts
28/10:30am 28.2 30.5 19.4 59 5.7 S 6 11 3 6 1011.0 1010.6 0.0
28/10:00am 26.7 29.8 19.6 65 4.6 SSW 2 6 1 3 1011.3 1010.9 0.0
28/09:30am 26.5 29.5 20.8 71 3.8 WNW 6 11 3 6 1011.3 1010.9 0.0
28/09:00am 26.6 30.8 21.8 75 3.2 W 2 6 1 3 1011.4 1011.0 0.4
28/08:30am 25.1 29.0 21.2 79 2.6 ESE 2 6 1 3 1011.4 1011.0 0.4
28/08:00am 23.2 27.2 21.3 89 1.3 SE 2 4 1 2 1011.2 1010.8 0.4
28/07:30am 21.8 25.7 21.1 96 0.5 SSE 2 6 1 3 1011.1 1010.7 0.4
28/07:00am 20.9 24.9 20.6 98 0.2 CALM 0 0 0 0 1010.8 1010.4 0.4
28/06:30am 20.2 23.8 19.7 97 0.3 CALM 0 0 0 0 1010.5 1010.1 0.4
28/06:00am 20.0 23.6 19.7 98 0.2 CALM 0 0 0 0 1010.2 1009.8 0.4
28/05:30am 19.5 22.7 18.8 96 0.4 CALM 0 0 0 0 1009.9 1009.5 0.4
28/05:00am 19.9 23.3 19.4 97 0.3 CALM 0 0 0 0 1009.7 1009.3 0.4
28/04:30am 19.9 23.3 19.4 97 0.3 CALM 0 0 0 0 1009.3 1008.9 0.4
28/04:00am 20.1 23.5 19.4 96 0.4 CALM 0 0 0 0 1009.2 1008.8 0.4
28/03:30am 20.3 23.8 19.5 95 0.5 CALM 0 0 0 0 1009.4 1009.0 0.4
28/03:00am 20.5 24.1 19.7 95 0.5 CALM 0 0 0 0 1009.4 1009.0 0.4
28/02:30am 20.9 24.6 19.9 94 0.6 CALM 0 0 0 0 1009.4 1009.0 0.4
28/02:00am 21.2 25.0 20.2 94 0.6 CALM 0 0 0 0 1009.7 1009.3 0.4
28/01:30am 21.4 25.3 20.4 94 0.6 CALM 0 0 0 0 1009.9 1009.5 0.4
28/01:00am 21.6 25.6 20.6 94 0.6 CALM 0 0 0 0 1009.8 1009.4 0.4
28/12:30am 21.8 25.4 20.6 93 0.8 SE 2 6 1 3 1009.9 1009.5 0.4
28/12:00am 22.4 26.1 20.7 90 1.1 SE 2 6 1 3 1009.8 1009.4 0.4
 
Date/Time
EST
Temp
°C
App
Temp
°C
Dew
Point
Rel
Hum
%
Delta-T
°C
Wind Press
QNH
hPa
Press
MSL
hPa
Rain
since 9 am
mm
Dir
 
Spd
km/h
Gust
km/h
Spd
kts
Gust
kts
27/11:30pm 22.6 26.8 20.9 90 1.1 CALM 0 0 0 0 1010.1 1009.7 0.4
27/11:00pm 23.1 27.0 20.4 85 1.8 CALM 0 0 0 0 1010.0 1009.6 0.4
27/10:30pm 23.5 27.6 20.8 85 1.8 CALM 0 0 0 0 1010.1 1009.7 0.4
27/10:00pm 23.6 27.7 20.7 84 1.9 CALM 0 4 0 2 1010.3 1009.9 0.4
27/09:30pm 23.8 27.6 20.9 84 1.9 SSE 2 6 1 3 1010.1 1009.7 0.4
27/09:00pm 23.4 27.5 20.7 85 1.8 CALM 0 2 0 1 1009.9 1009.5 0.4
27/08:30pm 23.7 27.3 20.6 83 2.0 SE 2 4 1 2 1009.7 1009.3 0.4
27/08:00pm 24.1 27.2 20.2 79 2.5 ESE 4 9 2 5 1009.2 1008.8 0.4
27/07:30pm 24.5 27.2 20.2 77 2.8 ESE 6 9 3 5 1008.8 1008.4 0.4
27/07:00pm 25.3 27.7 20.1 73 3.4 ENE 7 15 4 8 1008.6 1008.2 0.4
27/06:30pm 25.9 28.4 20.2 71 3.7 ESE 7 13 4 7 1008.3 1007.9 0.4
27/06:00pm 26.6 28.2 20.0 67 4.3 E 11 17 6 9 1007.7 1007.3 0.4
27/05:30pm 27.9 30.0 20.2 63 5.1 E 9 19 5 10 1007.1 1006.7 0.4
27/05:00pm 28.0 29.6 20.0 61 5.3 ENE 11 20 6 11 1006.6 1006.3 0.4
27/04:30pm 30.0 31.1 20.5 56 6.3 E 15 26 8 14 1006.0 1005.7 0.4
27/04:00pm 30.1 31.9 18.2 49 7.7 ENE 6 9 3 5 1006.1 1005.8 0.4
27/03:30pm 30.1 32.4 18.5 49 7.5 SSE 4 6 2 3 1006.1 1005.8 0.4
27/03:00pm 29.9 31.9 18.7 51 7.3 SSE 6 11 3 6 1006.3 1006.0 0.4
27/02:30pm 29.7 32.2 19.1 53 6.9 S 4 7 2 4 1006.6 1006.3 0.4
27/02:00pm 29.1 31.4 18.5 52 6.8 N 4 15 2 8 1007.1 1006.7 0.4
27/01:30pm 28.5 31.1 19.2 57 6.0 WSW 4 9 2 5 1007.5 1007.1 0.4
27/01:00pm 28.0 30.3 19.5 60 5.5 WSW 6 9 3 5 1007.8 1007.4 0.4
27/12:30pm 27.3 29.6 19.4 62 5.1 WNW 6 11 3 6 1008.2 1007.8 0.4
27/12:00pm 26.5 29.2 20.3 68 4.1 WSW 6 9 3 5 1008.5 1008.1 0.4
27/11:30am 25.9 28.9 20.9 74 3.3 WSW 6 9 3 5 1008.7 1008.3 0.4
27/11:00am 25.2 28.3 20.2 74 3.3 NW 4 9 2 5 1008.9 1008.5 0.2
27/10:30am 24.0 27.3 20.7 82 2.2 NNW 4 9 2 5 1009.2 1008.8 0.2
27/10:00am 23.3 27.2 20.4 84 1.9 CALM 0 0 0 0 1009.3 1008.9 0.2
27/09:30am 22.8 27.0 20.9 89 1.2 CALM 0 2 0 1 1009.6 1009.2 0.2
27/09:00am 22.1 25.4 21.4 96 0.5 SW 6 11 3 6 1010.7 1010.3 1.4
27/08:30am 21.9 25.0 21.1 95 0.5 NW 6 9 3 5 1010.7 1010.3 0.4
27/08:00am 22.0 26.3 21.2 95 0.5 CALM 0 6 0 3 1011.0 1010.6 0.0
27/07:30am 21.7 25.5 20.9 95 0.5 SE 2 4 1 2 1011.3 1010.9 0.0
27/07:00am 21.5 24.5 20.8 96 0.5 ESE 6 9 3 5 1010.8 1010.4 0.0
27/06:30am 21.0 24.2 20.5 97 0.3 SE 4 6 2 3 1010.3 1009.9 0.0
27/06:00am 20.4 23.1 20.2 99 0.1 S 6 7 3 4 1009.9 1009.5 0.0
27/05:30am 20.0 23.6 19.7 98 0.2 CALM 0 4 0 2 1008.6 1008.2 0.0
27/05:00am 20.1 23.6 19.6 97 0.3 CALM 0 0 0 0 1007.8 1007.4 0.0
27/04:30am 20.1 23.0 19.8 98 0.2 N 4 4 2 2 1007.7 1007.3 0.0
27/04:00am 20.2 23.7 19.5 96 0.4 CALM 0 0 0 0 1008.2 1007.8 0.0
27/03:30am 20.3 23.8 19.6 96 0.4 CALM 0 0 0 0 1008.1 1007.7 0.0
27/03:00am 20.4 23.9 19.6 95 0.5 CALM 0 0 0 0 1007.7 1007.3 0.0
27/02:30am 20.4 23.9 19.6 95 0.5 CALM 0 0 0 0 1007.9 1007.5 0.0
27/02:00am 20.6 24.2 19.8 95 0.5 CALM 0 0 0 0 1007.9 1007.5 0.0
27/01:30am 20.5 24.1 19.7 95 0.5 CALM 0 2 0 1 1008.2 1007.8 0.0
27/01:00am 20.5 24.1 19.7 95 0.5 CALM 0 0 0 0 1007.8 1007.4 0.0
27/12:30am 20.4 23.7 19.2 93 0.8 CALM 0 0 0 0 1008.5 1008.1 0.0
27/12:00am 20.8 24.3 19.5 92 0.8 CALM 0 0 0 0 1008.6 1008.2 0.0
 
Date/Time
EST
Temp
°C
App
Temp
°C
Dew
Point
Rel
Hum
%
Delta-T
°C
Wind Press
QNH
hPa
Press
MSL
hPa
Rain
since 9 am
mm
Dir
 
Spd
km/h
Gust
km/h
Spd
kts
Gust
kts
26/11:30pm 20.9 24.4 19.6 92 0.8 CALM 0 0 0 0 1008.7 1008.3 0.0
26/11:00pm 21.4 25.2 20.2 93 0.8 CALM 0 0 0 0 1009.0 1008.6 0.0
26/10:30pm 21.5 25.3 20.1 92 0.9 CALM 0 0 0 0 1009.2 1008.8 0.0
26/10:00pm 21.7 25.5 20.2 91 1.0 CALM 0 0 0 0 1009.1 1008.7 0.0
26/09:30pm 22.0 25.3 19.9 88 1.3 WSW 2 4 1 2 1009.5 1009.1 0.0
26/09:00pm 23.1 26.7 19.7 81 2.2 CALM 0 0 0 0 1009.2 1008.8 0.0
26/08:30pm 23.4 27.0 19.8 80 2.3 CALM 0 4 0 2 1009.2 1008.8 0.0
26/08:00pm 23.5 26.6 19.6 79 2.5 ESE 2 6 1 3 1009.0 1008.6 0.0
26/07:30pm 24.0 26.2 19.3 75 3.0 ESE 6 7 3 4 1008.7 1008.3 0.0
26/07:00pm 24.5 26.6 19.3 73 3.3 E 7 17 4 9 1008.2 1007.8 0.0
26/06:30pm 24.8 26.8 18.7 69 3.9 ESE 6 11 3 6 1008.1 1007.7 0.0
26/06:00pm 25.6 27.1 18.8 66 4.4 E 9 19 5 10 1007.5 1007.1 0.0
26/05:30pm 26.7 27.9 19.1 63 4.9 E 11 19 6 10 1007.1 1006.7 0.0
26/05:00pm 26.9 28.2 19.3 63 4.9 E 11 19 6 10 1007.0 1006.6 0.0
26/04:30pm 28.4 29.7 19.3 57 5.9 ESE 11 19 6 10 1006.5 1006.2 0.0
26/04:00pm 29.0 30.7 20.2 59 5.8 E 11 20 6 11 1006.4 1006.1 0.0
26/03:30pm 29.2 31.0 20.4 59 5.8 ENE 11 20 6 11 1006.5 1006.2 0.0
26/03:00pm 29.9 31.8 21.3 60 5.8 E 13 20 7 11 1006.5 1006.2 0.0
26/02:30pm 29.9 32.3 19.6 54 6.7 ESE 6 7 3 4 1006.5 1006.2 0.0
26/02:00pm 30.1 32.6 19.8 54 6.8 E 6 9 3 5 1007.1 1006.7 0.0
26/01:30pm 29.8 32.3 19.8 55 6.6 E 6 11 3 6 1007.6 1007.2 0.0
26/01:00pm 30.2 32.8 20.4 55 6.5 S 7 13 4 7 1008.2 1007.8 0.0
26/12:30pm 29.3 31.4 19.0 53 6.7 S 6 13 3 7 1008.6 1008.2 0.0
26/12:00pm 28.8 31.2 20.0 59 5.8 SE 7 13 4 7 1009.0 1008.6 0.0
26/11:30am 28.7 31.5 20.4 60 5.5 SE 6 9 3 5 1009.2 1008.8 0.0
26/11:00am 27.9 30.0 18.9 58 5.8 SSE 6 11 3 6 1009.5 1009.1 0.0
26/10:30am 26.6 28.7 19.0 63 4.9 SE 6 9 3 5 1009.7 1009.3 0.0
26/10:00am 26.9 29.4 19.8 65 4.6 SSE 6 11 3 6 1010.0 1009.6 0.0
26/09:30am 26.1 28.2 20.2 70 3.9 SE 9 15 5 8 1010.2 1009.8 0.0
26/09:00am 26.2 28.7 20.3 70 3.9 SSE 7 15 4 8 1010.0 1009.6 0.0
26/08:30am 24.9 27.0 20.2 75 3.1 SSE 9 15 5 8 1009.9 1009.5 0.0
26/08:00am 24.0 27.0 20.1 79 2.5 S 4 9 2 5 1010.0 1009.6 0.0
26/07:30am 22.7 26.3 19.7 83 1.9 CALM 0 0 0 0 1009.8 1009.4 0.0
26/07:00am 21.1 24.8 19.9 93 0.8 CALM 0 0 0 0 1009.6 1009.2 0.0
26/06:30am 20.1 23.5 19.4 96 0.4 CALM 0 0 0 0 1009.4 1009.0 0.0
26/06:00am 19.8 23.1 19.1 96 0.4 CALM 0 0 0 0 1009.4 1009.0 0.0
26/05:30am 19.7 23.0 19.0 96 0.4 CALM 0 0 0 0 1008.9 1008.5 0.0
26/05:00am 19.6 22.8 18.8 95 0.5 CALM 0 0 0 0 1008.7 1008.3 0.0
26/04:30am 19.8 23.1 19.0 95 0.5 CALM 0 0 0 0 1008.7 1008.3 0.0
26/04:00am 20.2 23.6 19.4 95 0.5 CALM 0 0 0 0 1008.8 1008.4 0.0
26/03:30am 20.4 23.8 19.4 94 0.6 CALM 0 2 0 1 1009.0 1008.6 0.0
26/03:00am 20.6 24.1 19.6 94 0.6 CALM 0 0 0 0 1009.2 1008.8 0.0
26/02:30am 20.8 23.8 20.0 95 0.5 SW 4 6 2 3 1009.6 1009.2 0.0
26/02:00am 20.6 24.2 19.8 95 0.5 CALM 0 6 0 3 1009.6 1009.2 0.0
26/01:30am 20.2 23.1 19.0 93 0.8 SE 2 6 1 3 1009.5 1009.1 0.0
26/01:00am 21.1 23.9 19.7 92 0.9 SE 4 4 2 2 1010.2 1009.8 0.0
26/12:30am 21.3 24.4 19.6 90 1.1 SE 2 6 1 3 1010.6 1010.2 0.0
26/12:00am 21.4 25.1 19.9 91 1.0 CALM 0 6 0 3 1010.9 1010.5 0.0
 
Date/Time
EST
Temp
°C
App
Temp
°C
Dew
Point
Rel
Hum
%
Delta-T
°C
Wind Press
QNH
hPa
Press
MSL
hPa
Rain
since 9 am
mm
Dir
 
Spd
km/h
Gust
km/h
Spd
kts
Gust
kts
25/11:30pm 21.8 25.4 19.7 88 1.3 CALM 0 0 0 0 1011.3 1010.9 0.0
25/11:00pm 22.0 25.7 19.9 88 1.3 CALM 0 2 0 1 1011.3 1010.9 0.0
25/10:30pm 22.2 25.3 20.3 89 1.2 S 4 7 2 4 1011.4 1011.0 0.0
25/10:00pm 22.0 25.8 20.1 89 1.2 CALM 0 2 0 1 1011.7 1011.3 0.0
25/09:30pm 22.3 25.6 20.0 87 1.5 SSE 2 4 1 2 1011.6 1011.2 0.0
25/09:00pm 22.2 25.0 19.7 86 1.6 SSE 4 4 2 2 1011.7 1011.3 0.0
25/08:30pm 22.7 25.7 20.0 85 1.7 SE 4 7 2 4 1011.4 1011.0 0.0
25/08:00pm 23.1 25.6 19.9 82 2.1 SSE 6 9 3 5 1011.2 1010.8 0.0
25/07:30pm 23.3 25.7 19.7 80 2.3 SSE 6 11 3 6 1011.1 1010.7 0.0
25/07:00pm 24.1 26.2 19.4 75 3.0 SE 7 11 4 6 1010.4 1010.0 0.0
25/06:30pm 25.0 25.8 19.1 70 3.8 SE 13 24 7 13 1009.9 1009.5 0.0
25/06:00pm 25.8 26.8 18.7 65 4.5 SE 11 20 6 11 1009.8 1009.4 0.0
25/05:30pm 26.8 27.7 19.2 63 4.9 SE 13 24 7 13 1009.5 1009.1 0.0
25/05:00pm 27.0 27.7 18.8 60 5.3 SSE 13 24 7 13 1009.3 1008.9 0.0
25/04:30pm 28.0 29.2 19.8 61 5.4 SE 13 26 7 14 1009.1 1008.7 0.0
25/04:00pm 27.5 27.9 19.8 63 5.0 SE 17 28 9 15 1009.3 1008.9 0.0
25/03:30pm 27.1 27.6 19.2 62 5.1 SE 15 22 8 12 1009.4 1009.0 0.0
25/03:00pm 27.6 28.0 19.1 59 5.5 SE 15 30 8 16 1009.4 1009.0 0.0
25/02:30pm 27.8 27.7 19.6 61 5.3 SE 19 30 10 16 1009.7 1009.3 0.0
25/02:00pm 28.2 28.8 20.2 62 5.3 SE 17 26 9 14 1009.8 1009.4 0.0
25/01:30pm 28.7 29.1 19.9 59 5.8 SE 17 30 9 16 1010.0 1009.6 0.0
25/01:00pm 27.8 28.5 20.4 64 4.9 SE 17 26 9 14 1010.2 1009.8 0.0
25/12:30pm 28.5 30.5 20.8 63 5.1 SE 11 24 6 13 1010.4 1010.0 0.0
25/12:00pm 28.1 30.0 20.6 63 5.0 SE 11 20 6 11 1010.7 1010.3 0.0
25/11:30am 28.2 31.0 21.5 67 4.5 SSE 9 19 5 10 1011.1 1010.7 0.0
25/11:00am 27.6 29.8 21.2 68 4.3 SSE 11 17 6 9 1011.6 1011.2 0.0

Other Formats:

Comma delimited format used in spreadsheet applications
http://www.bom.gov.au/fwo/IDQ60801/IDQ60801.94566.axf

JavaScript Object Notation format (JSON) in row-major order
http://www.bom.gov.au/fwo/IDQ60801/IDQ60801.94566.json